createdAt,value
2018-11-04T00:00:55.134Z,90.74
2018-11-04T00:03:25.288Z,90.15
2018-11-04T00:05:55.221Z,90.51
2018-11-04T00:08:25.122Z,89.66
2018-11-04T00:10:55.182Z,90.43
2018-11-04T00:13:25.569Z,90.83
2018-11-04T00:15:55.491Z,90.46
2018-11-04T00:18:25.496Z,90.93
2018-11-04T00:20:55.320Z,90.78
2018-11-04T00:23:25.364Z,90.44
2018-11-04T00:25:55.683Z,90.92
2018-11-04T00:28:25.483Z,90.76
2018-11-04T00:30:55.277Z,90.54
2018-11-04T00:33:25.143Z,90.79
2018-11-04T00:35:54.981Z,90.19
2018-11-04T00:38:24.802Z,90.01
2018-11-04T00:40:55.590Z,89.91
2018-11-04T00:43:25.389Z,90.38
2018-11-04T00:45:55.249Z,90.29
2018-11-04T00:48:25.209Z,90.52
2018-11-04T00:50:54.938Z,90.24
2018-11-04T00:53:24.864Z,90.43
2018-11-04T00:55:55.328Z,90.15
2018-11-04T00:58:26.211Z,90.51
2018-11-04T01:00:56.151Z,90.87
2018-11-04T01:03:26.019Z,90.40
2018-11-04T01:05:55.935Z,89.90
2018-11-04T01:08:26.386Z,89.60
2018-11-04T01:10:56.270Z,89.83
2018-11-04T01:13:26.192Z,89.92
2018-11-04T01:15:55.948Z,90.43
2018-11-04T01:18:28.011Z,90.24
2018-11-04T01:20:57.830Z,90.22
2018-11-04T01:23:27.679Z,90.29
2018-11-04T01:25:57.474Z,90.64
2018-11-04T01:28:27.234Z,90.04
2018-11-04T01:30:57.170Z,90.18
2018-11-04T01:33:27.161Z,90.38
2018-11-04T01:35:57.046Z,89.84
2018-11-04T01:38:26.926Z,89.81
2018-11-04T01:40:57.598Z,89.45
2018-11-04T01:43:27.405Z,89.30
2018-11-04T01:45:57.193Z,89.70
2018-11-04T01:48:27.102Z,89.15
2018-11-04T01:50:56.898Z,89.58
2018-11-04T01:53:26.788Z,90.06
2018-11-04T01:55:56.617Z,90.18
2018-11-04T01:58:26.428Z,89.69
2018-11-04T02:00:56.151Z,90.20
2018-11-04T02:03:26.046Z,90.05
2018-11-04T02:05:55.958Z,90.14
2018-11-04T02:08:25.850Z,89.56
2018-11-04T02:10:55.701Z,89.74
2018-11-04T02:13:25.448Z,89.45
2018-11-04T02:15:55.266Z,89.41
2018-11-04T02:18:29.522Z,89.40
2018-11-04T02:20:59.294Z,89.55
2018-11-04T02:23:29.069Z,89.91
2018-11-04T02:25:58.905Z,90.11
2018-11-04T02:28:28.722Z,90.03
2018-11-04T02:30:58.611Z,89.91
2018-11-04T02:33:28.339Z,90.40
2018-11-04T02:35:58.256Z,89.95
2018-11-04T02:38:28.268Z,89.99
2018-11-04T02:40:58.136Z,89.72
2018-11-04T02:43:27.931Z,90.43
2018-11-04T02:45:57.771Z,90.25
2018-11-04T02:48:27.554Z,90.72
2018-11-04T02:50:57.488Z,90.17
2018-11-04T02:53:27.306Z,90.53
2018-11-04T02:55:57.165Z,90.56
2018-11-04T02:58:26.977Z,90.53
2018-11-04T03:00:56.820Z,90.69
2018-11-04T03:03:26.610Z,90.14
2018-11-04T03:05:57.077Z,90.18
2018-11-04T03:08:26.828Z,89.68
2018-11-04T03:10:56.579Z,89.76
2018-11-04T03:13:26.322Z,89.33
2018-11-04T03:15:56.124Z,89.69
2018-11-04T03:18:25.953Z,89.64
2018-11-04T03:20:55.729Z,89.84
2018-11-04T03:23:25.502Z,89.87
2018-11-04T03:25:55.232Z,89.66
2018-11-04T03:28:25.053Z,89.56
2018-11-04T03:30:54.778Z,89.06
2018-11-04T03:33:24.654Z,89.54
2018-11-04T03:35:54.356Z,90.01
2018-11-04T03:38:24.089Z,89.99
2018-11-04T03:40:55.921Z,90.28
2018-11-04T03:43:25.746Z,89.65
2018-11-04T03:45:55.489Z,89.15
2018-11-04T03:48:25.261Z,89.61
2018-11-04T03:50:55.040Z,89.56
2018-11-04T03:53:24.851Z,88.83
2018-11-04T03:55:54.593Z,89.21
2018-11-04T03:58:24.413Z,89.42
2018-11-04T04:00:54.205Z,89.00
2018-11-04T04:03:23.981Z,89.66
2018-11-04T04:05:53.757Z,89.73
2018-11-04T04:08:23.563Z,89.05
2018-11-04T04:10:53.365Z,89.14
2018-11-04T04:13:23.171Z,89.83
2018-11-04T04:15:52.954Z,89.46
2018-11-04T04:18:22.744Z,90.02
2018-11-04T04:21:01.390Z,89.41
2018-11-04T04:23:31.145Z,89.80
2018-11-04T04:26:01.097Z,90.17
2018-11-04T04:28:31.090Z,89.79
2018-11-04T04:31:00.981Z,90.33
2018-11-04T04:33:30.828Z,90.58
2018-11-04T04:36:00.834Z,90.33
2018-11-04T04:38:30.578Z,90.45
2018-11-04T04:41:00.469Z,90.79
2018-11-04T04:43:31.148Z,90.59
2018-11-04T04:46:00.969Z,90.37
2018-11-04T04:48:30.852Z,90.77
2018-11-04T04:51:00.623Z,91.11
2018-11-04T04:53:30.532Z,90.88
2018-11-04T04:56:00.440Z,91.11
2018-11-04T04:58:30.278Z,90.53
2018-11-04T05:01:00.132Z,90.55
2018-11-04T05:03:29.925Z,90.50
2018-11-04T05:05:59.831Z,90.48
2018-11-04T05:08:29.592Z,90.86
2018-11-04T05:10:59.408Z,90.42
2018-11-04T05:13:29.224Z,90.11
2018-11-04T05:15:59.068Z,90.78
2018-11-04T05:18:28.963Z,90.64
2018-11-04T05:20:58.801Z,91.05
2018-11-04T05:23:28.632Z,90.62
2018-11-04T05:25:58.498Z,90.76
2018-11-04T05:28:28.309Z,90.88
2018-11-04T05:30:58.124Z,90.47
2018-11-04T05:33:27.909Z,90.92
2018-11-04T05:35:57.776Z,90.87
2018-11-04T05:38:27.593Z,91.46
2018-11-04T05:40:57.310Z,91.39
2018-11-04T05:43:27.082Z,90.85
2018-11-04T05:45:56.835Z,90.20
2018-11-04T05:48:26.575Z,90.46
2018-11-04T05:50:56.418Z,90.25
2018-11-04T05:53:26.262Z,90.27
2018-11-04T05:55:56.105Z,89.83
2018-11-04T05:58:25.997Z,90.27
2018-11-04T06:00:55.788Z,89.44
2018-11-04T06:03:25.533Z,89.86
2018-11-04T06:05:55.385Z,90.01
2018-11-04T06:08:25.271Z,89.60
2018-11-04T06:10:55.386Z,89.53
2018-11-04T06:13:25.141Z,88.63
2018-11-04T06:15:54.956Z,88.73
2018-11-04T06:18:24.688Z,89.16
2018-11-04T06:20:55.472Z,88.60
2018-11-04T06:23:25.274Z,88.45
2018-11-04T06:25:55.170Z,88.44
2018-11-04T06:28:24.977Z,88.34
2018-11-04T06:30:54.824Z,88.15
2018-11-04T06:33:24.836Z,88.10
2018-11-04T06:35:54.742Z,87.97
2018-11-04T06:38:24.535Z,87.94
2018-11-04T06:40:54.367Z,87.00
2018-11-04T06:43:24.065Z,86.44
2018-11-04T06:45:53.905Z,86.51
2018-11-04T06:48:23.834Z,85.93
2018-11-04T06:50:53.646Z,86.56
2018-11-04T06:53:24.071Z,86.38
2018-11-04T06:55:53.909Z,86.20
2018-11-04T06:58:23.739Z,86.77
2018-11-04T07:00:53.607Z,86.15
2018-11-04T07:03:23.369Z,85.86
2018-11-04T07:05:53.415Z,85.81
2018-11-04T07:08:23.450Z,85.67
2018-11-04T07:10:53.475Z,85.87
2018-11-04T07:13:23.334Z,86.19
2018-11-04T07:15:53.272Z,85.91
2018-11-04T07:18:23.135Z,86.49
2018-11-04T07:20:52.961Z,86.61
2018-11-04T07:23:23.028Z,85.96
2018-11-04T07:25:52.931Z,85.31
2018-11-04T07:28:22.852Z,85.19
2018-11-04T07:30:52.876Z,84.55
2018-11-04T07:33:22.615Z,84.94
2018-11-04T07:35:52.578Z,85.34
2018-11-04T07:38:22.403Z,84.95
2018-11-04T07:40:52.153Z,85.42
2018-11-04T07:43:21.927Z,84.91
2018-11-04T07:45:51.659Z,84.93
2018-11-04T07:48:21.485Z,85.38
2018-11-04T07:50:51.234Z,86.15
2018-11-04T07:53:20.903Z,85.53
2018-11-04T07:55:50.680Z,85.31
2018-11-04T07:58:20.493Z,85.62
2018-11-04T08:00:50.260Z,85.80
2018-11-04T08:03:20.021Z,86.06
2018-11-04T08:05:49.914Z,85.93
2018-11-04T08:08:19.711Z,85.53
2018-11-04T08:10:49.535Z,85.05
2018-11-04T08:13:19.302Z,84.80
2018-11-04T08:15:49.167Z,84.43
2018-11-04T08:18:18.939Z,84.20
2018-11-04T08:20:48.964Z,84.46
2018-11-04T08:23:18.735Z,84.57
2018-11-04T08:25:48.496Z,84.99
2018-11-04T08:28:19.067Z,85.91
2018-11-04T08:30:48.804Z,86.45
2018-11-04T08:33:18.657Z,85.83
2018-11-04T08:35:48.379Z,85.30
2018-11-04T08:38:18.163Z,85.16
2018-11-04T08:40:47.934Z,84.00
2018-11-04T08:43:17.757Z,84.78
2018-11-04T08:45:47.779Z,85.86
2018-11-04T08:48:17.473Z,85.30
2018-11-04T08:50:47.251Z,84.34
2018-11-04T08:53:17.008Z,84.26
2018-11-04T08:55:46.859Z,83.62
2018-11-04T08:58:16.662Z,82.79
2018-11-04T09:00:46.465Z,83.54
2018-11-04T09:03:16.367Z,84.70
2018-11-04T09:05:46.124Z,84.80
2018-11-04T09:08:15.912Z,83.28
2018-11-04T09:10:45.737Z,83.40
2018-11-04T09:13:15.808Z,83.93
2018-11-04T09:15:45.815Z,84.11
2018-11-04T09:18:15.589Z,83.58
2018-11-04T09:20:45.523Z,83.25
2018-11-04T09:23:15.534Z,82.39
2018-11-04T09:25:45.715Z,81.77
2018-11-04T09:28:15.532Z,84.70
2018-11-04T09:30:45.565Z,84.50
2018-11-04T09:33:15.512Z,82.89
2018-11-04T09:35:45.629Z,83.07
2018-11-04T09:38:15.367Z,82.62
2018-11-04T09:40:45.063Z,83.44
2018-11-04T09:43:14.823Z,84.40
2018-11-04T09:45:44.861Z,84.84
2018-11-04T09:48:14.900Z,84.91
2018-11-04T09:50:44.640Z,84.55
2018-11-04T09:53:14.419Z,83.36
2018-11-04T09:55:44.225Z,83.11
2018-11-04T09:58:14.891Z,81.71
2018-11-04T10:00:44.659Z,82.81
2018-11-04T10:03:14.416Z,82.28
2018-11-04T10:05:44.187Z,81.71
2018-11-04T10:08:13.587Z,81.30
2018-11-04T10:10:43.641Z,80.50
2018-11-04T10:13:13.429Z,80.77
2018-11-04T10:15:43.157Z,82.05
2018-11-04T10:18:12.901Z,83.78
2018-11-04T10:20:42.579Z,83.78
2018-11-04T10:23:12.185Z,84.69
2018-11-04T10:25:42.026Z,83.94
2018-11-04T10:28:11.654Z,83.02
2018-11-04T10:30:41.096Z,81.85
2018-11-04T10:33:10.944Z,83.31
2018-11-04T10:35:40.778Z,84.12
2018-11-04T10:38:10.738Z,82.88
2018-11-04T10:40:40.182Z,81.99
2018-11-04T10:43:09.617Z,82.67
2018-11-04T10:45:38.991Z,82.54
2018-11-04T10:48:08.467Z,82.93
2018-11-04T10:50:38.301Z,84.24
2018-11-04T10:53:07.786Z,83.60
2018-11-04T10:55:37.460Z,81.91
2018-11-04T10:58:07.267Z,81.90
2018-11-04T11:00:41.898Z,81.15
2018-11-04T11:03:11.297Z,79.99
2018-11-04T11:05:41.434Z,79.80
2018-11-04T11:08:11.294Z,78.97
2018-11-04T11:10:40.909Z,78.01
2018-11-04T11:13:10.536Z,79.37
2018-11-04T11:15:40.474Z,78.88
2018-11-04T11:18:09.925Z,80.46
2018-11-04T11:20:39.792Z,80.90
2018-11-04T11:23:09.286Z,80.50
2018-11-04T11:25:38.929Z,80.04
2018-11-04T11:28:08.386Z,79.47
2018-11-04T11:30:37.834Z,78.06
2018-11-04T11:33:07.380Z,77.56
2018-11-04T11:35:36.914Z,76.18
2018-11-04T11:38:07.237Z,75.63
2018-11-04T11:40:36.580Z,74.62
2018-11-04T11:43:07.016Z,76.26
2018-11-04T11:45:36.547Z,76.51
2018-11-04T11:48:07.768Z,77.90
2018-11-04T11:50:37.418Z,79.29
2018-11-04T11:53:07.339Z,78.95
2018-11-04T11:55:37.319Z,77.66
2018-11-04T11:58:07.219Z,78.28
2018-11-04T12:00:37.127Z,79.03
2018-11-04T12:03:06.893Z,78.52
2018-11-04T12:05:36.502Z,77.14
2018-11-04T12:08:06.365Z,79.76
2018-11-04T12:10:36.258Z,79.75
2018-11-04T12:13:06.159Z,78.68
2018-11-04T12:15:35.625Z,77.47
2018-11-04T12:18:05.302Z,77.58
2018-11-04T12:20:34.761Z,78.41
2018-11-04T12:23:06.741Z,78.83
2018-11-04T12:25:36.825Z,78.43
2018-11-04T12:28:06.543Z,77.84
2018-11-04T12:30:36.581Z,76.79
2018-11-04T12:33:06.414Z,76.07
2018-11-04T12:35:35.915Z,78.07
2018-11-04T12:38:05.433Z,78.32
2018-11-04T12:40:35.308Z,76.79
2018-11-04T12:43:05.096Z,75.39
2018-11-04T12:45:34.683Z,74.58
2018-11-04T12:48:04.888Z,74.28
2018-11-04T12:50:34.470Z,74.96
2018-11-04T12:53:04.216Z,76.85
2018-11-04T12:55:34.125Z,77.67
2018-11-04T12:58:03.693Z,80.03
2018-11-04T13:00:33.441Z,79.46
2018-11-04T13:03:03.341Z,79.30
2018-11-04T13:05:33.300Z,77.54
2018-11-04T13:08:02.816Z,79.09
2018-11-04T13:10:32.677Z,77.63
2018-11-04T13:13:02.147Z,76.31
2018-11-04T13:15:31.654Z,76.49
2018-11-04T13:18:01.254Z,77.17
2018-11-04T13:20:30.769Z,79.57
2018-11-04T13:23:00.340Z,79.22
2018-11-04T13:25:29.744Z,80.72
2018-11-04T13:27:59.239Z,80.67
2018-11-04T13:30:28.744Z,81.19
2018-11-04T13:32:58.201Z,81.88
2018-11-04T13:35:28.240Z,79.65
2018-11-04T13:37:57.675Z,79.20
2018-11-04T13:40:27.194Z,77.94
2018-11-04T13:42:56.832Z,76.72
2018-11-04T13:45:26.721Z,75.81
2018-11-04T13:47:56.198Z,75.31
2018-11-04T13:50:25.708Z,75.17
2018-11-04T13:52:55.588Z,75.26
2018-11-04T13:55:25.123Z,77.51
2018-11-04T13:57:54.628Z,79.56
2018-11-04T14:00:24.510Z,81.31
2018-11-04T14:02:54.007Z,81.39
2018-11-04T14:05:23.424Z,81.34
2018-11-04T14:07:53.726Z,80.55
2018-11-04T14:10:23.928Z,79.66
2018-11-04T14:12:55.357Z,79.83
2018-11-04T14:15:30.862Z,80.00
2018-11-04T14:18:04.562Z,82.38
2018-11-04T14:20:37.364Z,81.55
2018-11-04T14:23:08.536Z,83.20
2018-11-04T14:28:26.626Z,84.22
2018-11-04T14:31:30.964Z,84.85
2018-11-04T14:37:49.872Z,83.75
2018-11-04T14:40:29.558Z,83.60
2018-11-04T14:43:14.072Z,83.98
2018-11-04T14:45:48.910Z,85.76
2018-11-04T14:48:18.592Z,85.73
2018-11-04T14:50:48.198Z,87.29
2018-11-04T14:53:17.733Z,88.25
2018-11-04T14:55:47.920Z,88.54
2018-11-04T14:58:18.099Z,87.84
2018-11-04T15:00:47.734Z,87.78
2018-11-04T15:03:17.770Z,88.98
2018-11-04T15:05:49.936Z,88.97
2018-11-04T15:08:19.608Z,89.03
2018-11-04T15:10:49.118Z,89.05
2018-11-04T15:13:18.719Z,89.96
2018-11-04T15:15:51.917Z,90.16
2018-11-04T15:18:41.168Z,89.51
2018-11-04T15:21:11.897Z,90.31
2018-11-04T15:23:42.290Z,90.05
2018-11-04T15:26:13.309Z,89.70
2018-11-04T15:28:43.064Z,88.98
2018-11-04T15:31:12.948Z,89.38
2018-11-04T15:33:46.151Z,89.84
2018-11-04T15:36:16.667Z,89.32
2018-11-04T15:38:46.449Z,88.52
2018-11-04T15:41:16.239Z,89.08
2018-11-04T15:43:48.216Z,89.47
2018-11-04T15:46:17.896Z,89.01
2018-11-04T15:48:47.583Z,89.34
2018-11-04T15:51:17.536Z,89.61
2018-11-04T15:53:47.280Z,89.62
2018-11-04T15:56:17.375Z,89.91
2018-11-04T15:58:46.887Z,90.08
2018-11-04T16:01:16.424Z,90.33
2018-11-04T16:03:47.567Z,89.53
2018-11-04T16:06:18.377Z,90.36
2018-11-04T16:08:49.819Z,90.39
2018-11-04T16:11:24.488Z,90.25
2018-11-04T16:13:54.495Z,90.20
2018-11-04T16:16:24.363Z,90.78
2018-11-04T16:18:55.043Z,90.04
2018-11-04T16:21:26.286Z,90.87
2018-11-04T16:23:56.669Z,90.79
2018-11-04T16:26:26.869Z,90.79
2018-11-04T16:28:57.970Z,91.12
2018-11-04T16:31:28.238Z,91.27
2018-11-04T16:33:58.045Z,91.59
2018-11-04T16:36:28.573Z,91.49
2018-11-04T16:38:59.125Z,91.95
2018-11-04T16:41:28.905Z,92.20
2018-11-04T16:43:59.180Z,92.25
2018-11-04T16:46:29.325Z,92.22
2018-11-04T16:48:59.267Z,91.97
2018-11-04T16:51:28.943Z,92.32
2018-11-04T16:53:58.543Z,92.49
2018-11-04T16:56:28.323Z,92.38
2018-11-04T16:58:57.977Z,92.42
2018-11-04T17:01:28.149Z,93.49
2018-11-04T17:03:58.404Z,93.64
2018-11-04T17:06:35.096Z,94.01
2018-11-04T17:09:06.003Z,93.38
2018-11-04T17:11:36.958Z,93.78
2018-11-04T17:14:07.176Z,93.13
2018-11-04T17:16:37.543Z,93.37
2018-11-04T17:19:19.233Z,92.60
2018-11-04T17:21:51.341Z,92.60
2018-11-04T17:24:21.803Z,92.82
2018-11-04T17:26:53.359Z,92.24
2018-11-04T17:29:24.251Z,91.63
2018-11-04T17:31:54.507Z,91.08
2018-11-04T17:34:25.148Z,91.84
2018-11-04T17:36:55.446Z,92.09
2018-11-04T17:39:25.857Z,93.10
2018-11-04T17:41:56.234Z,94.09
2018-11-04T17:44:26.668Z,94.20
2018-11-04T17:46:59.599Z,93.93
2018-11-04T17:49:30.572Z,93.78
2018-11-04T17:52:00.845Z,93.25
2018-11-04T17:54:31.235Z,92.87
2018-11-04T17:57:01.738Z,93.49
2018-11-04T17:59:32.131Z,93.56
2018-11-04T18:02:03.929Z,94.15
2018-11-04T18:04:35.121Z,94.32
2018-11-04T18:07:11.730Z,94.05
2018-11-04T18:09:42.527Z,93.82
2018-11-04T18:12:13.037Z,94.14
2018-11-04T18:14:43.452Z,94.20
2018-11-04T18:17:13.539Z,94.69
2018-11-04T18:19:43.693Z,95.62
2018-11-04T18:22:13.867Z,95.27
2018-11-04T18:24:45.560Z,96.68
2018-11-04T18:27:16.376Z,96.43
2018-11-04T18:29:47.530Z,96.31
2018-11-04T18:32:17.936Z,97.44
2018-11-04T18:34:47.882Z,97.06
2018-11-04T18:37:18.074Z,97.76
2018-11-04T18:39:48.834Z,98.33
2018-11-04T18:42:19.264Z,98.94
2018-11-04T18:44:49.821Z,99.62
2018-11-04T18:47:20.298Z,98.96
2018-11-04T18:49:50.497Z,98.86
2018-11-04T18:52:20.754Z,98.83
2018-11-04T18:54:50.995Z,98.54
2018-11-04T18:57:22.270Z,98.28
2018-11-04T18:59:52.809Z,97.80
2018-11-04T19:02:27.027Z,97.42
2018-11-04T19:04:59.438Z,97.96
2018-11-04T19:07:31.485Z,98.07
2018-11-04T19:10:17.850Z,98.31
2018-11-04T19:12:48.257Z,98.20
2018-11-04T19:15:20.525Z,97.83
2018-11-04T19:17:50.435Z,97.87
2018-11-04T19:20:20.962Z,96.57
2018-11-04T19:22:51.170Z,96.25
2018-11-04T19:25:21.191Z,96.05
2018-11-04T19:27:51.548Z,95.79
2018-11-04T19:30:21.604Z,95.89
2018-11-04T19:32:51.842Z,96.26
2018-11-04T19:35:21.786Z,95.70
2018-11-04T19:37:51.997Z,95.94
2018-11-04T19:40:22.129Z,96.24
2018-11-04T19:42:52.355Z,95.61
2018-11-04T19:45:27.723Z,96.12
2018-11-04T19:47:58.616Z,96.14
2018-11-04T19:50:32.759Z,95.81
2018-11-04T19:53:26.580Z,95.70
2018-11-04T19:56:18.026Z,95.25
2018-11-04T20:05:14.813Z,95.06
2018-11-04T20:28:25.608Z,95.23
2018-11-04T20:31:01.278Z,94.48
2018-11-04T20:33:32.896Z,94.71
2018-11-04T20:36:03.759Z,94.36
2018-11-04T20:38:39.568Z,94.59
2018-11-04T20:41:14.718Z,95.21
2018-11-04T20:43:44.844Z,94.75
2018-11-04T20:46:15.237Z,95.60
2018-11-04T20:48:50.986Z,95.69
2018-11-04T20:51:21.284Z,95.39
2018-11-04T20:53:51.620Z,95.35
2018-11-04T20:56:27.000Z,94.87
2018-11-04T20:58:57.216Z,94.78
2018-11-04T21:01:27.723Z,94.96
2018-11-04T21:03:57.998Z,95.36
2018-11-04T21:06:28.243Z,94.86
2018-11-04T21:08:58.820Z,95.01
2018-11-04T21:11:28.976Z,95.22
2018-11-04T21:14:05.831Z,95.10
2018-11-04T21:16:36.443Z,95.85
2018-11-04T21:19:06.596Z,96.15
2018-11-04T21:21:36.621Z,96.24
2018-11-04T21:24:06.552Z,96.22
2018-11-04T21:26:36.509Z,96.19
2018-11-04T21:29:06.633Z,96.75
2018-11-04T21:31:36.489Z,97.01
2018-11-04T21:34:06.825Z,97.03
2018-11-04T21:36:36.733Z,96.90
2018-11-04T21:39:09.923Z,96.52
2018-11-04T21:41:39.770Z,96.48
2018-11-04T21:44:09.831Z,96.82
2018-11-04T21:46:39.603Z,96.05
2018-11-04T21:49:09.598Z,96.38
2018-11-04T21:51:39.580Z,96.18
2018-11-04T21:54:09.585Z,96.20
2018-11-04T21:56:40.088Z,96.59
2018-11-04T21:59:09.853Z,96.69
2018-11-04T22:01:39.928Z,96.84
2018-11-04T22:04:09.961Z,96.53
2018-11-04T22:06:39.800Z,96.06
2018-11-04T22:09:10.733Z,95.87
2018-11-04T22:11:40.732Z,96.20
2018-11-04T22:14:10.659Z,95.61
2018-11-04T22:16:40.721Z,96.29
2018-11-04T22:19:10.630Z,96.51
2018-11-04T22:21:40.474Z,96.75
2018-11-04T22:24:10.432Z,96.68
2018-11-04T22:26:40.346Z,96.47
2018-11-04T22:29:10.313Z,96.04
2018-11-04T22:31:40.277Z,96.50
2018-11-04T22:34:10.494Z,96.19
2018-11-04T22:36:40.484Z,96.17
2018-11-04T22:39:10.481Z,95.46
2018-11-04T22:41:40.402Z,95.68
2018-11-04T22:44:10.217Z,95.69
2018-11-04T22:46:40.702Z,95.39
2018-11-04T22:49:10.691Z,95.31
2018-11-04T22:51:40.509Z,95.54
2018-11-04T22:54:10.436Z,95.64
2018-11-04T22:56:40.282Z,95.30
2018-11-04T22:59:10.059Z,95.47
2018-11-04T23:01:40.102Z,94.96
2018-11-04T23:04:09.980Z,94.98
2018-11-04T23:06:39.696Z,95.66
2018-11-04T23:09:10.899Z,95.42
2018-11-04T23:11:40.887Z,95.69
2018-11-04T23:14:10.846Z,95.45
2018-11-04T23:16:41.665Z,95.27
2018-11-04T23:19:11.529Z,95.23
2018-11-04T23:21:41.345Z,95.16
2018-11-04T23:24:11.193Z,95.51
2018-11-04T23:26:41.317Z,95.51
2018-11-04T23:29:11.325Z,95.08
2018-11-04T23:31:41.153Z,95.17
2018-11-04T23:34:11.035Z,95.14
2018-11-04T23:36:40.836Z,95.72
2018-11-04T23:39:11.312Z,95.80
2018-11-04T23:41:41.720Z,97.12
2018-11-04T23:44:11.589Z,96.97
2018-11-04T23:46:41.386Z,97.27
2018-11-04T23:49:11.426Z,98.21
2018-11-04T23:51:41.341Z,97.67
2018-11-04T23:54:11.760Z,98.00
2018-11-04T23:56:41.652Z,97.96
2018-11-04T23:59:11.548Z,97.58
